createdAt,value
2022-11-13T00:03:18.123Z,0.86
2022-11-13T00:08:42.079Z,0.87
2022-11-13T00:14:03.909Z,0.83
2022-11-13T00:19:26.093Z,0.56
2022-11-13T00:24:49.455Z,0.71
2022-11-13T00:30:17.848Z,0.76
2022-11-13T00:35:41.240Z,0.67
2022-11-13T00:41:04.799Z,0.62
2022-11-13T00:46:26.690Z,0.63
2022-11-13T00:51:48.841Z,0.52
2022-11-13T00:57:12.299Z,0.53
2022-11-13T01:02:33.983Z,0.49
2022-11-13T01:07:56.379Z,0.47
2022-11-13T01:13:19.616Z,0.51
2022-11-13T01:18:42.873Z,0.41
2022-11-13T01:24:05.166Z,0.34
2022-11-13T01:29:28.593Z,0.35
2022-11-13T01:34:50.630Z,0.32
2022-11-13T01:40:15.127Z,0.24
2022-11-13T01:46:09.282Z,0.21
2022-11-13T01:51:35.269Z,0.15
2022-11-13T01:56:58.619Z,0.12
2022-11-13T02:02:22.308Z,0.10
2022-11-13T02:07:44.320Z,0.04
2022-11-13T02:13:07.150Z,0.08
2022-11-13T02:18:32.534Z,-0.03
2022-11-13T02:24:04.771Z,-0.07
2022-11-13T02:29:28.555Z,-0.05
2022-11-13T02:34:50.685Z,-0.08
2022-11-13T02:40:13.804Z,-0.15
2022-11-13T02:45:38.701Z,-0.07
2022-11-13T02:51:01.496Z,-0.14
2022-11-13T02:56:23.448Z,-0.19
2022-11-13T03:01:47.576Z,-0.29
2022-11-13T03:07:09.764Z,-0.26
2022-11-13T03:12:31.644Z,-0.23
2022-11-13T03:17:55.157Z,-0.30
2022-11-13T03:23:17.110Z,-0.34
2022-11-13T03:28:39.382Z,-0.34
2022-11-13T03:34:02.505Z,-0.37
2022-11-13T03:39:24.757Z,-0.44
2022-11-13T03:44:46.801Z,-0.42
2022-11-13T03:50:10.965Z,-0.44
2022-11-13T03:55:32.803Z,-0.45
2022-11-13T04:00:55.512Z,-0.46
2022-11-13T04:06:19.417Z,-0.49
2022-11-13T04:11:41.646Z,-0.50
2022-11-13T04:17:03.427Z,-0.52
2022-11-13T04:22:27.012Z,-0.52
2022-11-13T04:27:50.218Z,-0.63
2022-11-13T04:33:12.128Z,-0.63
2022-11-13T04:38:35.771Z,-0.68
2022-11-13T04:43:57.979Z,-0.76
2022-11-13T04:49:19.728Z,-0.76
2022-11-13T04:54:43.113Z,-0.76
2022-11-13T05:00:06.875Z,-0.80
2022-11-13T05:05:29.814Z,-0.83
2022-11-13T05:10:53.290Z,-0.96
2022-11-13T05:16:16.393Z,-0.91
2022-11-13T05:21:39.711Z,-0.95
2022-11-13T05:27:03.411Z,-0.96
2022-11-13T05:32:25.501Z,-1.04
2022-11-13T05:37:47.549Z,-1.00
2022-11-13T05:43:11.037Z,-1.04
2022-11-13T05:48:33.674Z,-1.05
2022-11-13T05:53:56.310Z,-1.11
2022-11-13T05:59:19.822Z,-1.11
2022-11-13T06:04:42.044Z,-1.13
2022-11-13T06:10:04.017Z,-1.17
2022-11-13T06:15:27.271Z,-1.19
2022-11-13T06:20:49.464Z,-1.23
2022-11-13T06:26:13.452Z,-1.21
2022-11-13T06:31:37.917Z,-1.15
2022-11-13T06:37:01.820Z,-1.24
2022-11-13T06:42:24.305Z,-1.25
2022-11-13T06:47:47.703Z,-1.19
2022-11-13T06:53:09.614Z,-1.14
2022-11-13T06:58:31.861Z,-1.14
2022-11-13T07:03:55.718Z,-1.05
2022-11-13T07:09:18.011Z,-0.97
2022-11-13T07:14:39.846Z,-0.98
2022-11-13T07:20:03.159Z,-0.89
2022-11-13T07:25:25.388Z,-0.86
2022-11-13T07:30:47.686Z,-0.80
2022-11-13T07:36:12.153Z,-0.77
2022-11-13T07:41:34.401Z,-0.63
2022-11-13T07:46:56.530Z,-0.57
2022-11-13T07:52:20.293Z,-0.53
2022-11-13T07:57:42.102Z,-0.46
2022-11-13T08:03:07.996Z,-0.42
2022-11-13T08:08:31.639Z,-0.31
2022-11-13T08:13:54.143Z,-0.39
2022-11-13T08:19:16.293Z,-0.17
2022-11-13T08:24:39.789Z,-0.18
2022-11-13T08:30:01.993Z,-0.07
2022-11-13T08:35:29.154Z,0.19
2022-11-13T08:40:53.432Z,0.50
2022-11-13T08:46:16.010Z,0.84
2022-11-13T08:51:37.811Z,1.32
2022-11-13T08:57:05.754Z,1.85
2022-11-13T09:02:28.851Z,2.48
2022-11-13T09:07:51.398Z,2.89
2022-11-13T09:13:14.773Z,3.26
2022-11-13T09:18:37.120Z,3.65
2022-11-13T09:23:59.149Z,4.21
2022-11-13T09:29:23.398Z,4.72
2022-11-13T09:34:45.458Z,5.51
2022-11-13T09:40:12.864Z,6.10
2022-11-13T09:45:36.354Z,6.80
2022-11-13T09:51:01.810Z,7.28
2022-11-13T09:56:30.522Z,7.55
2022-11-13T10:02:01.236Z,8.00
2022-11-13T10:07:34.404Z,8.45
2022-11-13T10:12:59.872Z,8.81
2022-11-13T10:18:28.681Z,9.13
2022-11-13T10:23:56.980Z,9.58
2022-11-13T10:29:21.371Z,10.02
2022-11-13T10:34:47.592Z,10.28
2022-11-13T10:40:10.236Z,10.62
2022-11-13T10:45:32.188Z,10.90
2022-11-13T10:50:57.873Z,10.93
2022-11-13T10:56:27.634Z,11.25
2022-11-13T11:01:50.240Z,11.51
2022-11-13T11:07:21.547Z,11.74
2022-11-13T11:12:44.115Z,11.78
2022-11-13T11:18:08.845Z,12.10
2022-11-13T11:23:41.354Z,12.22
2022-11-13T11:29:18.278Z,12.44
2022-11-13T11:34:45.757Z,12.45
2022-11-13T11:40:28.239Z,12.41
2022-11-13T11:45:50.857Z,12.46
2022-11-13T11:51:22.573Z,12.29
2022-11-13T11:56:48.859Z,12.45
2022-11-13T12:02:50.790Z,12.46
2022-11-13T12:08:24.061Z,12.72
2022-11-13T12:13:58.047Z,12.89
2022-11-13T12:19:31.151Z,13.07
2022-11-13T12:25:07.846Z,13.12
2022-11-13T12:30:42.854Z,13.02
2022-11-13T12:36:06.182Z,12.83
2022-11-13T12:41:34.578Z,13.21
2022-11-13T12:47:01.631Z,13.11
2022-11-13T12:52:25.112Z,13.19
2022-11-13T12:57:49.322Z,13.10
2022-11-13T13:03:31.813Z,13.19
2022-11-13T13:09:17.191Z,13.25
2022-11-13T13:15:10.286Z,12.99
2022-11-13T13:20:37.197Z,12.73
2022-11-13T13:26:14.887Z,12.72
2022-11-13T13:31:46.266Z,12.72
2022-11-13T13:37:22.137Z,12.71
2022-11-13T13:42:56.968Z,12.57
2022-11-13T13:48:25.187Z,12.42
2022-11-13T13:53:50.244Z,12.47
2022-11-13T13:59:18.050Z,12.21
2022-11-13T14:04:45.930Z,12.05
2022-11-13T14:10:17.693Z,11.91
2022-11-13T14:15:39.540Z,11.91
2022-11-13T14:21:04.053Z,11.72
2022-11-13T14:26:27.549Z,11.77
2022-11-13T14:31:50.213Z,11.29
2022-11-13T14:37:23.664Z,11.24
2022-11-13T14:42:50.482Z,10.98
2022-11-13T14:48:20.033Z,10.63
2022-11-13T14:53:43.765Z,10.45
2022-11-13T14:59:15.616Z,9.79
2022-11-13T15:04:42.021Z,9.41
2022-11-13T15:10:04.793Z,9.03
2022-11-13T15:15:31.405Z,8.67
2022-11-13T15:20:53.586Z,8.40
2022-11-13T15:26:16.080Z,7.83
2022-11-13T15:31:43.265Z,7.42
2022-11-13T15:37:12.230Z,6.93
2022-11-13T15:42:36.657Z,6.39
2022-11-13T15:48:00.237Z,6.29
2022-11-13T15:53:22.610Z,6.11
2022-11-13T15:58:44.645Z,5.52
2022-11-13T16:04:08.936Z,5.09
2022-11-13T16:09:30.949Z,4.50
2022-11-13T16:14:53.063Z,4.43
2022-11-13T16:20:18.265Z,4.56
2022-11-13T16:25:40.603Z,4.37
2022-11-13T16:31:02.631Z,4.36
2022-11-13T16:36:27.730Z,4.12
2022-11-13T16:41:49.867Z,3.66
2022-11-13T16:47:22.513Z,3.72
2022-11-13T16:52:45.939Z,3.37
2022-11-13T16:58:08.136Z,3.69
2022-11-13T17:03:30.515Z,3.35
2022-11-13T17:08:55.653Z,3.24
2022-11-13T17:14:18.530Z,3.27
2022-11-13T17:19:44.051Z,3.08
2022-11-13T17:25:08.577Z,3.44
2022-11-13T17:30:30.739Z,3.08
2022-11-13T17:35:56.096Z,3.50
2022-11-13T17:41:19.847Z,2.91
2022-11-13T17:46:41.996Z,3.32
2022-11-13T17:52:04.025Z,3.28
2022-11-13T17:57:27.425Z,3.23
2022-11-13T18:02:50.115Z,3.22
2022-11-13T18:08:12.835Z,3.02
2022-11-13T18:13:37.443Z,3.47
2022-11-13T18:19:01.086Z,3.51
2022-11-13T18:24:23.398Z,3.30
2022-11-13T18:29:47.550Z,3.44
2022-11-13T18:35:10.295Z,3.26
2022-11-13T18:40:32.662Z,3.33
2022-11-13T18:46:00.499Z,3.18
2022-11-13T18:51:24.761Z,3.18
2022-11-13T18:56:47.045Z,3.02
2022-11-13T19:02:12.786Z,2.29
2022-11-13T19:07:34.883Z,2.43
2022-11-13T19:12:56.629Z,2.64
2022-11-13T19:18:20.329Z,2.88
2022-11-13T19:23:43.339Z,2.70
2022-11-13T19:29:06.544Z,2.13
2022-11-13T19:34:30.065Z,2.45
2022-11-13T19:39:52.362Z,2.49
2022-11-13T19:45:14.778Z,2.36
2022-11-13T19:50:38.652Z,2.42
2022-11-13T19:56:01.065Z,2.39
2022-11-13T20:01:25.299Z,2.25
2022-11-13T20:06:50.789Z,2.19
2022-11-13T20:12:13.232Z,2.10
2022-11-13T20:17:35.220Z,1.96
2022-11-13T20:22:58.761Z,1.91
2022-11-13T20:28:22.421Z,2.06
2022-11-13T20:33:44.999Z,2.04
2022-11-13T20:39:09.586Z,2.04
2022-11-13T20:44:31.596Z,1.96
2022-11-13T20:49:53.581Z,1.78
2022-11-13T20:55:17.623Z,2.06
2022-11-13T21:00:39.784Z,1.82
2022-11-13T21:06:02.196Z,1.79
2022-11-13T21:11:26.561Z,1.62
2022-11-13T21:16:48.578Z,1.99
2022-11-13T21:22:10.931Z,1.95
2022-11-13T21:27:35.073Z,1.95
2022-11-13T21:33:00.065Z,2.08
2022-11-13T21:38:22.315Z,2.09
2022-11-13T21:43:46.128Z,2.06
2022-11-13T21:49:10.343Z,1.96
2022-11-13T21:54:32.701Z,2.08
2022-11-13T21:59:56.015Z,2.01
2022-11-13T22:05:18.194Z,1.94
2022-11-13T22:10:40.337Z,1.89
2022-11-13T22:16:05.605Z,1.84
2022-11-13T22:21:29.626Z,1.81
2022-11-13T22:26:51.580Z,1.81
2022-11-13T22:32:15.116Z,1.67
2022-11-13T22:37:36.929Z,1.63
2022-11-13T22:42:59.093Z,1.68
2022-11-13T22:48:22.531Z,1.69
2022-11-13T22:53:48.685Z,1.75
2022-11-13T22:59:12.490Z,1.68
2022-11-13T23:04:35.912Z,1.70
2022-11-13T23:09:57.946Z,1.58
2022-11-13T23:15:19.872Z,1.40
2022-11-13T23:20:44.419Z,1.39
2022-11-13T23:26:07.962Z,1.28
2022-11-13T23:31:29.960Z,1.52
2022-11-13T23:36:53.421Z,1.56
2022-11-13T23:42:20.706Z,1.49
2022-11-13T23:47:55.405Z,1.34
2022-11-13T23:53:19.573Z,1.09
2022-11-13T23:58:41.831Z,1.14
